sensor_id;sensor_type;location;lat;lon;timestamp;P1;durP1;ratioP1;P2;durP2;ratioP2
52186;SDS011;38161;53.020;6.598;2023-02-27T00:01:07;8.80;;;3.17;;
52186;SDS011;38161;53.020;6.598;2023-02-27T00:03:32;10.80;;;3.43;;
52186;SDS011;38161;53.020;6.598;2023-02-27T00:05:58;13.43;;;3.60;;
52186;SDS011;38161;53.020;6.598;2023-02-27T00:08:24;10.23;;;3.37;;
52186;SDS011;38161;53.020;6.598;2023-02-27T00:10:50;7.00;;;3.43;;
52186;SDS011;38161;53.020;6.598;2023-02-27T00:13:16;7.57;;;3.53;;
52186;SDS011;38161;53.020;6.598;2023-02-27T00:15:44;7.27;;;3.60;;
52186;SDS011;38161;53.020;6.598;2023-02-27T00:18:11;9.20;;;3.90;;
52186;SDS011;38161;53.020;6.598;2023-02-27T00:20:37;7.85;;;3.58;;
52186;SDS011;38161;53.020;6.598;2023-02-27T00:23:03;9.03;;;4.40;;
52186;SDS011;38161;53.020;6.598;2023-02-27T00:25:30;8.47;;;3.70;;
52186;SDS011;38161;53.020;6.598;2023-02-27T00:27:57;10.43;;;4.47;;
52186;SDS011;38161;53.020;6.598;2023-02-27T00:30:22;10.57;;;4.57;;
52186;SDS011;38161;53.020;6.598;2023-02-27T00:32:50;14.33;;;4.87;;
52186;SDS011;38161;53.020;6.598;2023-02-27T00:35:17;9.43;;;4.90;;
52186;SDS011;38161;53.020;6.598;2023-02-27T00:37:44;10.90;;;5.00;;
52186;SDS011;38161;53.020;6.598;2023-02-27T00:40:10;11.33;;;4.53;;
52186;SDS011;38161;53.020;6.598;2023-02-27T00:42:37;8.27;;;4.13;;
52186;SDS011;38161;53.020;6.598;2023-02-27T00:45:03;12.57;;;4.90;;
52186;SDS011;38161;53.020;6.598;2023-02-27T00:47:30;12.00;;;4.40;;
52186;SDS011;38161;53.020;6.598;2023-02-27T00:49:56;8.32;;;4.22;;
52186;SDS011;38161;53.020;6.598;2023-02-27T00:52:22;12.68;;;5.00;;
52186;SDS011;38161;53.020;6.598;2023-02-27T00:54:48;9.77;;;4.57;;
52186;SDS011;38161;53.020;6.598;2023-02-27T00:57:14;10.00;;;4.97;;
52186;SDS011;38161;53.020;6.598;2023-02-27T00:59:40;9.27;;;4.60;;
52186;SDS011;38161;53.020;6.598;2023-02-27T01:02:05;8.60;;;4.80;;
52186;SDS011;38161;53.020;6.598;2023-02-27T01:04:31;11.33;;;4.80;;
52186;SDS011;38161;53.020;6.598;2023-02-27T01:06:57;8.50;;;4.82;;
52186;SDS011;38161;53.020;6.598;2023-02-27T01:09:23;10.03;;;4.77;;
52186;SDS011;38161;53.020;6.598;2023-02-27T01:11:49;11.27;;;5.23;;
52186;SDS011;38161;53.020;6.598;2023-02-27T01:14:15;12.30;;;5.43;;
52186;SDS011;38161;53.020;6.598;2023-02-27T01:16:41;12.50;;;5.05;;
52186;SDS011;38161;53.020;6.598;2023-02-27T01:19:07;9.00;;;4.67;;
52186;SDS011;38161;53.020;6.598;2023-02-27T01:21:33;8.73;;;4.20;;
52186;SDS011;38161;53.020;6.598;2023-02-27T01:23:59;10.43;;;4.80;;
52186;SDS011;38161;53.020;6.598;2023-02-27T01:26:25;7.63;;;4.50;;
52186;SDS011;38161;53.020;6.598;2023-02-27T01:28:50;8.07;;;4.17;;
52186;SDS011;38161;53.020;6.598;2023-02-27T01:31:16;10.67;;;3.80;;
52186;SDS011;38161;53.020;6.598;2023-02-27T01:33:42;11.50;;;4.40;;
52186;SDS011;38161;53.020;6.598;2023-02-27T01:36:08;10.40;;;4.50;;
52186;SDS011;38161;53.020;6.598;2023-02-27T01:38:34;10.38;;;3.92;;
52186;SDS011;38161;53.020;6.598;2023-02-27T01:41:01;9.20;;;4.13;;
52186;SDS011;38161;53.020;6.598;2023-02-27T01:43:29;10.83;;;4.30;;
52186;SDS011;38161;53.020;6.598;2023-02-27T01:45:55;10.70;;;4.18;;
52186;SDS011;38161;53.020;6.598;2023-02-27T01:48:31;9.70;;;4.17;;
52186;SDS011;38161;53.020;6.598;2023-02-27T01:51:02;7.40;;;3.73;;
52186;SDS011;38161;53.020;6.598;2023-02-27T01:53:33;9.43;;;3.93;;
52186;SDS011;38161;53.020;6.598;2023-02-27T01:56:08;9.57;;;3.70;;
52186;SDS011;38161;53.020;6.598;2023-02-27T01:58:38;7.73;;;3.53;;
52186;SDS011;38161;53.020;6.598;2023-02-27T02:06:36;10.40;;;5.20;;
52186;SDS011;38161;53.020;6.598;2023-02-27T02:09:05;12.17;;;5.07;;
52186;SDS011;38161;53.020;6.598;2023-02-27T02:11:33;15.17;;;6.30;;
52186;SDS011;38161;53.020;6.598;2023-02-27T02:13:59;9.47;;;4.60;;
52186;SDS011;38161;53.020;6.598;2023-02-27T02:27:35;9.23;;;4.50;;
52186;SDS011;38161;53.020;6.598;2023-02-27T02:47:01;9.37;;;3.00;;
52186;SDS011;38161;53.020;6.598;2023-02-27T02:52:11;7.23;;;3.20;;
52186;SDS011;38161;53.020;6.598;2023-02-27T02:54:48;7.40;;;3.30;;
52186;SDS011;38161;53.020;6.598;2023-02-27T02:57:24;6.60;;;3.70;;
52186;SDS011;38161;53.020;6.598;2023-02-27T03:02:34;10.20;;;3.93;;
52186;SDS011;38161;53.020;6.598;2023-02-27T03:05:06;8.90;;;3.07;;
52186;SDS011;38161;53.020;6.598;2023-02-27T03:07:36;9.00;;;3.83;;
52186;SDS011;38161;53.020;6.598;2023-02-27T03:10:28;12.67;;;3.20;;
52186;SDS011;38161;53.020;6.598;2023-02-27T03:13:03;8.27;;;3.27;;
52186;SDS011;38161;53.020;6.598;2023-02-27T03:16:01;9.33;;;3.53;;
52186;SDS011;38161;53.020;6.598;2023-02-27T03:18:57;6.57;;;3.20;;
52186;SDS011;38161;53.020;6.598;2023-02-27T03:21:31;11.00;;;4.17;;
52186;SDS011;38161;53.020;6.598;2023-02-27T03:24:24;9.17;;;3.70;;
52186;SDS011;38161;53.020;6.598;2023-02-27T03:26:54;8.07;;;3.80;;
52186;SDS011;38161;53.020;6.598;2023-02-27T03:29:29;11.07;;;3.63;;
52186;SDS011;38161;53.020;6.598;2023-02-27T03:32:11;7.73;;;3.07;;
52186;SDS011;38161;53.020;6.598;2023-02-27T03:34:41;9.43;;;3.67;;
52186;SDS011;38161;53.020;6.598;2023-02-27T03:48:08;6.13;;;3.30;;
52186;SDS011;38161;53.020;6.598;2023-02-27T03:50:34;7.63;;;3.17;;
52186;SDS011;38161;53.020;6.598;2023-02-27T03:53:05;9.10;;;3.80;;
52186;SDS011;38161;53.020;6.598;2023-02-27T03:55:40;11.57;;;3.50;;
52186;SDS011;38161;53.020;6.598;2023-02-27T03:58:09;9.63;;;3.83;;
52186;SDS011;38161;53.020;6.598;2023-02-27T04:00:35;8.47;;;3.53;;
52186;SDS011;38161;53.020;6.598;2023-02-27T04:03:01;9.43;;;3.70;;
52186;SDS011;38161;53.020;6.598;2023-02-27T04:05:29;9.03;;;3.30;;
52186;SDS011;38161;53.020;6.598;2023-02-27T04:14:22;6.47;;;3.03;;
52186;SDS011;38161;53.020;6.598;2023-02-27T04:17:25;8.20;;;3.37;;
52186;SDS011;38161;53.020;6.598;2023-02-27T04:22:38;10.33;;;3.20;;
52186;SDS011;38161;53.020;6.598;2023-02-27T04:28:00;12.63;;;3.23;;
52186;SDS011;38161;53.020;6.598;2023-02-27T04:33:23;7.63;;;2.93;;
52186;SDS011;38161;53.020;6.598;2023-02-27T04:35:55;7.60;;;3.40;;
52186;SDS011;38161;53.020;6.598;2023-02-27T04:38:30;7.43;;;3.43;;
52186;SDS011;38161;53.020;6.598;2023-02-27T04:41:03;6.50;;;3.50;;
52186;SDS011;38161;53.020;6.598;2023-02-27T04:43:33;6.60;;;2.87;;
52186;SDS011;38161;53.020;6.598;2023-02-27T04:46:01;6.03;;;3.40;;
52186;SDS011;38161;53.020;6.598;2023-02-27T04:48:31;9.27;;;3.50;;
52186;SDS011;38161;53.020;6.598;2023-02-27T04:51:06;10.00;;;3.73;;
52186;SDS011;38161;53.020;6.598;2023-02-27T04:56:16;9.20;;;3.73;;
52186;SDS011;38161;53.020;6.598;2023-02-27T04:58:49;6.07;;;3.30;;
52186;SDS011;38161;53.020;6.598;2023-02-27T05:01:26;7.17;;;3.60;;
52186;SDS011;38161;53.020;6.598;2023-02-27T05:03:55;8.13;;;3.30;;
52186;SDS011;38161;53.020;6.598;2023-02-27T05:06:24;11.33;;;3.73;;
52186;SDS011;38161;53.020;6.598;2023-02-27T05:11:28;8.03;;;3.47;;
52186;SDS011;38161;53.020;6.598;2023-02-27T05:14:01;9.97;;;3.53;;
52186;SDS011;38161;53.020;6.598;2023-02-27T05:16:35;5.70;;;2.93;;
52186;SDS011;38161;53.020;6.598;2023-02-27T05:19:11;8.40;;;3.47;;
52186;SDS011;38161;53.020;6.598;2023-02-27T05:24:14;6.77;;;3.50;;
52186;SDS011;38161;53.020;6.598;2023-02-27T05:29:50;7.57;;;3.33;;
52186;SDS011;38161;53.020;6.598;2023-02-27T05:35:04;7.37;;;3.43;;
52186;SDS011;38161;53.020;6.598;2023-02-27T05:37:37;7.40;;;3.33;;
52186;SDS011;38161;53.020;6.598;2023-02-27T05:40:10;10.47;;;3.60;;
52186;SDS011;38161;53.020;6.598;2023-02-27T05:42:40;5.97;;;3.10;;
52186;SDS011;38161;53.020;6.598;2023-02-27T05:45:13;9.43;;;4.17;;
52186;SDS011;38161;53.020;6.598;2023-02-27T05:47:44;7.33;;;3.20;;
52186;SDS011;38161;53.020;6.598;2023-02-27T05:50:17;5.67;;;3.07;;
52186;SDS011;38161;53.020;6.598;2023-02-27T05:52:47;6.63;;;3.27;;
52186;SDS011;38161;53.020;6.598;2023-02-27T06:01:08;7.43;;;3.00;;
52186;SDS011;38161;53.020;6.598;2023-02-27T06:03:35;6.60;;;3.03;;
52186;SDS011;38161;53.020;6.598;2023-02-27T06:06:04;6.77;;;3.07;;
52186;SDS011;38161;53.020;6.598;2023-02-27T06:08:32;9.13;;;3.70;;
52186;SDS011;38161;53.020;6.598;2023-02-27T06:10:58;7.82;;;3.03;;
52186;SDS011;38161;53.020;6.598;2023-02-27T06:13:24;6.03;;;3.00;;
52186;SDS011;38161;53.020;6.598;2023-02-27T06:15:51;7.25;;;3.10;;
52186;SDS011;38161;53.020;6.598;2023-02-27T06:18:17;7.53;;;3.85;;
52186;SDS011;38161;53.020;6.598;2023-02-27T06:20:44;6.00;;;3.67;;
52186;SDS011;38161;53.020;6.598;2023-02-27T06:25:37;6.40;;;3.30;;
52186;SDS011;38161;53.020;6.598;2023-02-27T06:30:30;7.40;;;3.30;;
52186;SDS011;38161;53.020;6.598;2023-02-27T06:32:56;10.15;;;4.25;;
52186;SDS011;38161;53.020;6.598;2023-02-27T06:35:21;7.88;;;4.25;;
52186;SDS011;38161;53.020;6.598;2023-02-27T06:37:47;7.27;;;3.63;;
52186;SDS011;38161;53.020;6.598;2023-02-27T06:40:13;12.50;;;4.20;;
52186;SDS011;38161;53.020;6.598;2023-02-27T06:42:39;7.70;;;4.00;;
52186;SDS011;38161;53.020;6.598;2023-02-27T06:47:32;8.80;;;3.90;;
52186;SDS011;38161;53.020;6.598;2023-02-27T06:49:58;7.50;;;3.70;;
52186;SDS011;38161;53.020;6.598;2023-02-27T06:52:24;11.30;;;4.35;;
52186;SDS011;38161;53.020;6.598;2023-02-27T06:54:51;8.07;;;4.50;;
52186;SDS011;38161;53.020;6.598;2023-02-27T06:57:17;7.30;;;3.78;;
52186;SDS011;38161;53.020;6.598;2023-02-27T06:59:42;12.25;;;4.95;;
52186;SDS011;38161;53.020;6.598;2023-02-27T07:02:12;7.35;;;4.32;;
52186;SDS011;38161;53.020;6.598;2023-02-27T07:04:40;8.37;;;4.63;;
52186;SDS011;38161;53.020;6.598;2023-02-27T07:07:06;9.43;;;4.18;;
52186;SDS011;38161;53.020;6.598;2023-02-27T07:09:32;13.07;;;4.60;;
52186;SDS011;38161;53.020;6.598;2023-02-27T07:12:00;11.00;;;4.17;;
52186;SDS011;38161;53.020;6.598;2023-02-27T07:14:26;13.73;;;3.80;;
52186;SDS011;38161;53.020;6.598;2023-02-27T07:16:52;11.82;;;4.93;;
52186;SDS011;38161;53.020;6.598;2023-02-27T07:19:18;11.03;;;4.77;;
52186;SDS011;38161;53.020;6.598;2023-02-27T07:21:47;12.07;;;5.43;;
52186;SDS011;38161;53.020;6.598;2023-02-27T07:24:12;8.43;;;4.50;;
52186;SDS011;38161;53.020;6.598;2023-02-27T07:26:38;9.33;;;4.53;;
52186;SDS011;38161;53.020;6.598;2023-02-27T07:29:04;10.82;;;4.20;;
52186;SDS011;38161;53.020;6.598;2023-02-27T07:31:30;13.38;;;4.90;;
52186;SDS011;38161;53.020;6.598;2023-02-27T07:33:56;7.72;;;4.15;;
52186;SDS011;38161;53.020;6.598;2023-02-27T07:36:22;11.07;;;3.97;;
52186;SDS011;38161;53.020;6.598;2023-02-27T07:38:48;6.30;;;3.40;;
52186;SDS011;38161;53.020;6.598;2023-02-27T07:41:14;9.90;;;4.63;;
52186;SDS011;38161;53.020;6.598;2023-02-27T07:43:40;9.45;;;3.92;;
52186;SDS011;38161;53.020;6.598;2023-02-27T07:46:06;14.07;;;5.03;;
52186;SDS011;38161;53.020;6.598;2023-02-27T07:48:32;9.03;;;4.30;;
52186;SDS011;38161;53.020;6.598;2023-02-27T07:50:58;10.13;;;4.72;;
52186;SDS011;38161;53.020;6.598;2023-02-27T07:53:25;18.33;;;4.50;;
52186;SDS011;38161;53.020;6.598;2023-02-27T07:55:51;10.70;;;4.15;;
52186;SDS011;38161;53.020;6.598;2023-02-27T07:58:17;9.20;;;3.80;;
52186;SDS011;38161;53.020;6.598;2023-02-27T08:00:43;14.77;;;3.78;;
52186;SDS011;38161;53.020;6.598;2023-02-27T08:03:09;6.78;;;4.45;;
52186;SDS011;38161;53.020;6.598;2023-02-27T08:05:35;9.73;;;4.38;;
52186;SDS011;38161;53.020;6.598;2023-02-27T08:08:01;11.07;;;4.37;;
52186;SDS011;38161;53.020;6.598;2023-02-27T08:10:27;10.27;;;4.65;;
52186;SDS011;38161;53.020;6.598;2023-02-27T08:12:53;13.68;;;3.65;;
52186;SDS011;38161;53.020;6.598;2023-02-27T08:15:19;9.70;;;3.13;;
52186;SDS011;38161;53.020;6.598;2023-02-27T08:17:45;11.53;;;2.97;;
52186;SDS011;38161;53.020;6.598;2023-02-27T08:20:11;10.73;;;3.25;;
52186;SDS011;38161;53.020;6.598;2023-02-27T08:25:04;8.10;;;2.73;;
52186;SDS011;38161;53.020;6.598;2023-02-27T08:27:32;7.87;;;2.90;;
52186;SDS011;38161;53.020;6.598;2023-02-27T08:29:59;8.53;;;2.93;;
52186;SDS011;38161;53.020;6.598;2023-02-27T08:32:25;5.68;;;2.88;;
52186;SDS011;38161;53.020;6.598;2023-02-27T08:34:51;9.93;;;3.17;;
52186;SDS011;38161;53.020;6.598;2023-02-27T08:37:17;6.47;;;2.77;;
52186;SDS011;38161;53.020;6.598;2023-02-27T08:39:42;5.90;;;2.70;;
52186;SDS011;38161;53.020;6.598;2023-02-27T08:42:08;12.10;;;3.20;;
52186;SDS011;38161;53.020;6.598;2023-02-27T08:44:34;9.97;;;2.90;;
52186;SDS011;38161;53.020;6.598;2023-02-27T08:47:00;6.60;;;3.13;;
52186;SDS011;38161;53.020;6.598;2023-02-27T08:49:26;8.88;;;2.80;;
52186;SDS011;38161;53.020;6.598;2023-02-27T08:51:52;11.75;;;3.22;;
52186;SDS011;38161;53.020;6.598;2023-02-27T08:54:18;9.60;;;2.60;;
52186;SDS011;38161;53.020;6.598;2023-02-27T08:56:45;11.02;;;2.72;;
52186;SDS011;38161;53.020;6.598;2023-02-27T08:59:11;8.77;;;2.77;;
52186;SDS011;38161;53.020;6.598;2023-02-27T09:01:37;10.38;;;3.30;;
52186;SDS011;38161;53.020;6.598;2023-02-27T09:04:03;6.40;;;3.03;;
52186;SDS011;38161;53.020;6.598;2023-02-27T09:06:31;10.00;;;3.10;;
52186;SDS011;38161;53.020;6.598;2023-02-27T09:08:58;6.17;;;2.60;;
52186;SDS011;38161;53.020;6.598;2023-02-27T09:11:24;11.38;;;2.83;;
52186;SDS011;38161;53.020;6.598;2023-02-27T09:13:50;6.25;;;2.40;;
52186;SDS011;38161;53.020;6.598;2023-02-27T09:16:17;8.38;;;2.85;;
52186;SDS011;38161;53.020;6.598;2023-02-27T09:18:44;10.27;;;3.07;;
52186;SDS011;38161;53.020;6.598;2023-02-27T09:21:10;8.77;;;2.50;;
52186;SDS011;38161;53.020;6.598;2023-02-27T09:23:36;10.15;;;2.78;;
52186;SDS011;38161;53.020;6.598;2023-02-27T09:26:02;11.37;;;2.77;;
52186;SDS011;38161;53.020;6.598;2023-02-27T09:28:29;10.60;;;3.00;;
52186;SDS011;38161;53.020;6.598;2023-02-27T09:30:59;9.05;;;2.83;;
52186;SDS011;38161;53.020;6.598;2023-02-27T09:33:30;7.67;;;2.80;;
52186;SDS011;38161;53.020;6.598;2023-02-27T09:35:56;11.25;;;3.10;;
52186;SDS011;38161;53.020;6.598;2023-02-27T09:38:22;15.07;;;2.97;;
52186;SDS011;38161;53.020;6.598;2023-02-27T09:40:49;8.95;;;2.83;;
52186;SDS011;38161;53.020;6.598;2023-02-27T09:43:23;9.53;;;2.73;;
52186;SDS011;38161;53.020;6.598;2023-02-27T09:45:55;10.70;;;2.80;;
52186;SDS011;38161;53.020;6.598;2023-02-27T09:50:58;11.47;;;2.90;;
52186;SDS011;38161;53.020;6.598;2023-02-27T09:53:46;6.95;;;2.63;;
52186;SDS011;38161;53.020;6.598;2023-02-27T09:56:28;10.40;;;2.30;;
52186;SDS011;38161;53.020;6.598;2023-02-27T10:01:27;12.73;;;2.50;;
52186;SDS011;38161;53.020;6.598;2023-02-27T10:04:06;7.30;;;2.15;;
52186;SDS011;38161;53.020;6.598;2023-02-27T10:06:47;5.72;;;1.77;;
52186;SDS011;38161;53.020;6.598;2023-02-27T10:09:27;8.63;;;1.67;;
52186;SDS011;38161;53.020;6.598;2023-02-27T10:15:03;11.23;;;2.13;;
52186;SDS011;38161;53.020;6.598;2023-02-27T10:17:43;6.13;;;1.30;;
52186;SDS011;38161;53.020;6.598;2023-02-27T10:20:35;8.70;;;2.28;;
52186;SDS011;38161;53.020;6.598;2023-02-27T10:23:04;6.95;;;1.50;;
52186;SDS011;38161;53.020;6.598;2023-02-27T10:25:39;8.25;;;1.50;;
52186;SDS011;38161;53.020;6.598;2023-02-27T10:28:17;6.50;;;1.73;;
52186;SDS011;38161;53.020;6.598;2023-02-27T10:30:48;4.15;;;1.48;;
52186;SDS011;38161;53.020;6.598;2023-02-27T10:35:59;6.78;;;1.20;;
52186;SDS011;38161;53.020;6.598;2023-02-27T10:40:55;2.58;;;1.15;;
52186;SDS011;38161;53.020;6.598;2023-02-27T10:43:23;3.88;;;1.23;;
52186;SDS011;38161;53.020;6.598;2023-02-27T10:45:49;3.45;;;1.20;;
52186;SDS011;38161;53.020;6.598;2023-02-27T10:48:17;5.97;;;1.50;;
52186;SDS011;38161;53.020;6.598;2023-02-27T10:50:44;5.93;;;1.38;;
52186;SDS011;38161;53.020;6.598;2023-02-27T10:53:23;4.53;;;1.00;;
52186;SDS011;38161;53.020;6.598;2023-02-27T10:58:25;3.38;;;1.20;;
52186;SDS011;38161;53.020;6.598;2023-02-27T11:00:59;3.72;;;1.10;;
52186;SDS011;38161;53.020;6.598;2023-02-27T11:03:39;5.10;;;1.27;;
52186;SDS011;38161;53.020;6.598;2023-02-27T11:06:08;2.97;;;1.10;;
52186;SDS011;38161;53.020;6.598;2023-02-27T11:08:38;7.57;;;1.15;;
52186;SDS011;38161;53.020;6.598;2023-02-27T11:11:08;3.10;;;0.95;;
52186;SDS011;38161;53.020;6.598;2023-02-27T11:13:36;3.83;;;1.00;;
52186;SDS011;38161;53.020;6.598;2023-02-27T11:16:08;4.43;;;0.73;;
52186;SDS011;38161;53.020;6.598;2023-02-27T11:18:42;2.78;;;0.77;;
52186;SDS011;38161;53.020;6.598;2023-02-27T11:23:48;1.88;;;0.75;;
52186;SDS011;38161;53.020;6.598;2023-02-27T11:26:23;2.08;;;0.60;;
52186;SDS011;38161;53.020;6.598;2023-02-27T11:29:04;2.33;;;0.50;;
52186;SDS011;38161;53.020;6.598;2023-02-27T11:31:36;4.32;;;0.50;;
52186;SDS011;38161;53.020;6.598;2023-02-27T11:34:03;3.90;;;0.80;;
52186;SDS011;38161;53.020;6.598;2023-02-27T11:36:45;1.48;;;0.60;;
52186;SDS011;38161;53.020;6.598;2023-02-27T11:41:48;1.70;;;0.60;;
52186;SDS011;38161;53.020;6.598;2023-02-27T11:44:18;2.30;;;0.68;;
52186;SDS011;38161;53.020;6.598;2023-02-27T11:46:46;2.03;;;0.55;;
52186;SDS011;38161;53.020;6.598;2023-02-27T11:54:45;2.65;;;1.25;;
52186;SDS011;38161;53.020;6.598;2023-02-27T11:57:19;2.15;;;0.60;;
52186;SDS011;38161;53.020;6.598;2023-02-27T11:59:56;1.40;;;0.90;;
52186;SDS011;38161;53.020;6.598;2023-02-27T12:02:52;2.38;;;0.80;;
52186;SDS011;38161;53.020;6.598;2023-02-27T12:05:41;4.40;;;0.93;;
52186;SDS011;38161;53.020;6.598;2023-02-27T12:08:18;1.85;;;0.70;;
52186;SDS011;38161;53.020;6.598;2023-02-27T12:10:56;2.90;;;0.55;;
52186;SDS011;38161;53.020;6.598;2023-02-27T12:13:30;3.45;;;0.57;;
52186;SDS011;38161;53.020;6.598;2023-02-27T12:18:52;4.43;;;0.80;;
52186;SDS011;38161;53.020;6.598;2023-02-27T12:21:24;3.47;;;0.70;;
52186;SDS011;38161;53.020;6.598;2023-02-27T12:24:07;2.75;;;0.70;;
52186;SDS011;38161;53.020;6.598;2023-02-27T12:26:38;2.03;;;0.70;;
52186;SDS011;38161;53.020;6.598;2023-02-27T12:32:00;1.55;;;0.50;;
52186;SDS011;38161;53.020;6.598;2023-02-27T12:35:00;2.13;;;0.60;;
52186;SDS011;38161;53.020;6.598;2023-02-27T12:37:40;2.20;;;0.68;;
52186;SDS011;38161;53.020;6.598;2023-02-27T12:40:06;1.30;;;0.53;;
52186;SDS011;38161;53.020;6.598;2023-02-27T12:45:40;1.50;;;0.50;;
52186;SDS011;38161;53.020;6.598;2023-02-27T12:48:16;1.38;;;0.50;;
52186;SDS011;38161;53.020;6.598;2023-02-27T12:53:22;1.58;;;0.50;;
52186;SDS011;38161;53.020;6.598;2023-02-27T13:01:00;2.17;;;0.52;;
52186;SDS011;38161;53.020;6.598;2023-02-27T13:03:34;2.05;;;0.80;;
52186;SDS011;38161;53.020;6.598;2023-02-27T13:11:13;3.72;;;0.80;;
52186;SDS011;38161;53.020;6.598;2023-02-27T13:16:48;4.57;;;0.70;;
52186;SDS011;38161;53.020;6.598;2023-02-27T13:19:19;1.98;;;0.60;;
52186;SDS011;38161;53.020;6.598;2023-02-27T13:21:54;4.10;;;1.00;;
52186;SDS011;38161;53.020;6.598;2023-02-27T13:24:47;2.35;;;0.73;;
52186;SDS011;38161;53.020;6.598;2023-02-27T13:27:18;3.40;;;1.08;;
52186;SDS011;38161;53.020;6.598;2023-02-27T13:43:48;1.63;;;0.60;;
52186;SDS011;38161;53.020;6.598;2023-02-27T13:46:26;2.28;;;0.57;;
52186;SDS011;38161;53.020;6.598;2023-02-27T13:56:42;2.13;;;0.50;;
52186;SDS011;38161;53.020;6.598;2023-02-27T14:04:46;3.17;;;0.88;;
52186;SDS011;38161;53.020;6.598;2023-02-27T14:07:15;2.33;;;0.80;;
52186;SDS011;38161;53.020;6.598;2023-02-27T14:09:45;1.30;;;0.68;;
52186;SDS011;38161;53.020;6.598;2023-02-27T14:15:02;3.60;;;0.70;;
52186;SDS011;38161;53.020;6.598;2023-02-27T14:25:53;2.42;;;0.60;;
52186;SDS011;38161;53.020;6.598;2023-02-27T14:31:20;1.13;;;0.52;;
52186;SDS011;38161;53.020;6.598;2023-02-27T14:33:53;1.48;;;0.35;;
52186;SDS011;38161;53.020;6.598;2023-02-27T14:36:26;1.27;;;0.55;;
52186;SDS011;38161;53.020;6.598;2023-02-27T14:38:57;2.78;;;0.68;;
52186;SDS011;38161;53.020;6.598;2023-02-27T14:44:26;2.53;;;0.70;;
52186;SDS011;38161;53.020;6.598;2023-02-27T14:46:54;1.77;;;0.60;;
52186;SDS011;38161;53.020;6.598;2023-02-27T14:49:30;3.83;;;0.63;;
52186;SDS011;38161;53.020;6.598;2023-02-27T14:52:12;1.20;;;0.45;;
52186;SDS011;38161;53.020;6.598;2023-02-27T14:54:43;3.15;;;0.50;;
52186;SDS011;38161;53.020;6.598;2023-02-27T14:57:13;4.53;;;0.70;;
52186;SDS011;38161;53.020;6.598;2023-02-27T14:59:43;1.90;;;0.50;;
52186;SDS011;38161;53.020;6.598;2023-02-27T15:04:42;1.67;;;0.50;;
52186;SDS011;38161;53.020;6.598;2023-02-27T15:07:15;1.60;;;0.50;;
52186;SDS011;38161;53.020;6.598;2023-02-27T15:09:48;2.47;;;0.43;;
52186;SDS011;38161;53.020;6.598;2023-02-27T15:12:18;2.15;;;0.60;;
52186;SDS011;38161;53.020;6.598;2023-02-27T15:14:49;3.40;;;0.68;;
52186;SDS011;38161;53.020;6.598;2023-02-27T15:17:27;2.60;;;0.55;;
52186;SDS011;38161;53.020;6.598;2023-02-27T15:23:39;3.95;;;0.80;;
52186;SDS011;38161;53.020;6.598;2023-02-27T15:25:53;2.85;;;0.70;;
52186;SDS011;38161;53.020;6.598;2023-02-27T15:28:28;2.65;;;0.55;;
52186;SDS011;38161;53.020;6.598;2023-02-27T15:31:01;4.22;;;0.77;;
52186;SDS011;38161;53.020;6.598;2023-02-27T15:33:28;2.35;;;0.60;;
52186;SDS011;38161;53.020;6.598;2023-02-27T15:35:56;0.95;;;0.30;;
52186;SDS011;38161;53.020;6.598;2023-02-27T15:40:53;4.05;;;0.80;;
52186;SDS011;38161;53.020;6.598;2023-02-27T15:43:21;2.58;;;0.60;;
52186;SDS011;38161;53.020;6.598;2023-02-27T15:45:48;3.58;;;0.50;;
52186;SDS011;38161;53.020;6.598;2023-02-27T15:48:15;1.42;;;0.60;;
52186;SDS011;38161;53.020;6.598;2023-02-27T15:50:46;1.80;;;0.60;;
52186;SDS011;38161;53.020;6.598;2023-02-27T15:53:20;3.00;;;0.70;;
52186;SDS011;38161;53.020;6.598;2023-02-27T15:55:52;2.85;;;0.50;;
52186;SDS011;38161;53.020;6.598;2023-02-27T16:01:00;2.40;;;0.40;;
52186;SDS011;38161;53.020;6.598;2023-02-27T16:03:32;3.88;;;0.60;;
52186;SDS011;38161;53.020;6.598;2023-02-27T16:06:02;3.47;;;0.50;;
52186;SDS011;38161;53.020;6.598;2023-02-27T16:08:43;3.58;;;0.57;;
52186;SDS011;38161;53.020;6.598;2023-02-27T16:11:25;1.48;;;0.50;;
52186;SDS011;38161;53.020;6.598;2023-02-27T16:13:53;2.25;;;0.50;;
52186;SDS011;38161;53.020;6.598;2023-02-27T16:18:50;3.00;;;0.60;;
52186;SDS011;38161;53.020;6.598;2023-02-27T16:21:18;3.72;;;1.23;;
52186;SDS011;38161;53.020;6.598;2023-02-27T16:23:49;2.28;;;0.70;;
52186;SDS011;38161;53.020;6.598;2023-02-27T16:26:20;3.58;;;0.70;;
52186;SDS011;38161;53.020;6.598;2023-02-27T16:28:54;2.85;;;0.40;;
52186;SDS011;38161;53.020;6.598;2023-02-27T16:31:28;3.15;;;0.47;;
52186;SDS011;38161;53.020;6.598;2023-02-27T16:33:54;5.32;;;0.60;;
52186;SDS011;38161;53.020;6.598;2023-02-27T16:36:26;3.95;;;0.45;;
52186;SDS011;38161;53.020;6.598;2023-02-27T16:38:56;1.60;;;0.68;;
52186;SDS011;38161;53.020;6.598;2023-02-27T16:41:22;3.20;;;0.57;;
52186;SDS011;38161;53.020;6.598;2023-02-27T16:46:17;1.70;;;0.40;;
52186;SDS011;38161;53.020;6.598;2023-02-27T16:51:15;2.25;;;0.70;;
52186;SDS011;38161;53.020;6.598;2023-02-27T16:53:43;2.30;;;0.65;;
52186;SDS011;38161;53.020;6.598;2023-02-27T16:56:11;3.40;;;0.80;;
52186;SDS011;38161;53.020;6.598;2023-02-27T16:58:37;3.80;;;0.70;;
52186;SDS011;38161;53.020;6.598;2023-02-27T17:01:03;5.18;;;0.60;;
52186;SDS011;38161;53.020;6.598;2023-02-27T17:03:29;3.88;;;0.70;;
52186;SDS011;38161;53.020;6.598;2023-02-27T17:05:55;4.82;;;1.20;;
52186;SDS011;38161;53.020;6.598;2023-02-27T17:08:22;3.58;;;0.63;;
52186;SDS011;38161;53.020;6.598;2023-02-27T17:10:48;2.22;;;0.75;;
52186;SDS011;38161;53.020;6.598;2023-02-27T17:13:14;3.38;;;0.70;;
52186;SDS011;38161;53.020;6.598;2023-02-27T17:15:41;2.33;;;0.90;;
52186;SDS011;38161;53.020;6.598;2023-02-27T17:18:07;3.60;;;0.87;;
52186;SDS011;38161;53.020;6.598;2023-02-27T17:20:33;4.77;;;0.70;;
52186;SDS011;38161;53.020;6.598;2023-02-27T17:22:58;5.10;;;0.83;;
52186;SDS011;38161;53.020;6.598;2023-02-27T17:25:24;3.88;;;0.77;;
52186;SDS011;38161;53.020;6.598;2023-02-27T17:27:51;2.20;;;1.08;;
52186;SDS011;38161;53.020;6.598;2023-02-27T17:30:17;3.67;;;0.85;;
52186;SDS011;38161;53.020;6.598;2023-02-27T17:32:43;4.40;;;0.80;;
52186;SDS011;38161;53.020;6.598;2023-02-27T17:35:09;3.10;;;1.27;;
52186;SDS011;38161;53.020;6.598;2023-02-27T17:37:35;2.93;;;0.63;;
52186;SDS011;38161;53.020;6.598;2023-02-27T17:40:01;6.97;;;1.13;;
52186;SDS011;38161;53.020;6.598;2023-02-27T17:42:29;5.40;;;0.88;;
52186;SDS011;38161;53.020;6.598;2023-02-27T17:44:59;4.63;;;1.30;;
52186;SDS011;38161;53.020;6.598;2023-02-27T17:47:27;4.75;;;1.45;;
52186;SDS011;38161;53.020;6.598;2023-02-27T17:49:57;3.33;;;1.00;;
52186;SDS011;38161;53.020;6.598;2023-02-27T17:52:23;3.80;;;0.90;;
52186;SDS011;38161;53.020;6.598;2023-02-27T17:54:49;3.07;;;1.00;;
52186;SDS011;38161;53.020;6.598;2023-02-27T17:57:15;2.58;;;1.02;;
52186;SDS011;38161;53.020;6.598;2023-02-27T17:59:41;2.90;;;1.10;;
52186;SDS011;38161;53.020;6.598;2023-02-27T18:02:11;4.05;;;1.00;;
52186;SDS011;38161;53.020;6.598;2023-02-27T18:04:37;4.97;;;1.30;;
52186;SDS011;38161;53.020;6.598;2023-02-27T18:07:03;2.65;;;1.10;;
52186;SDS011;38161;53.020;6.598;2023-02-27T18:09:29;7.10;;;1.38;;
52186;SDS011;38161;53.020;6.598;2023-02-27T18:11:55;5.57;;;1.40;;
52186;SDS011;38161;53.020;6.598;2023-02-27T18:14:22;5.55;;;1.52;;
52186;SDS011;38161;53.020;6.598;2023-02-27T18:16:48;5.13;;;1.42;;
52186;SDS011;38161;53.020;6.598;2023-02-27T18:19:14;5.97;;;1.52;;
52186;SDS011;38161;53.020;6.598;2023-02-27T18:21:40;5.03;;;1.63;;
52186;SDS011;38161;53.020;6.598;2023-02-27T18:24:07;5.68;;;1.40;;
52186;SDS011;38161;53.020;6.598;2023-02-27T18:29:00;3.22;;;1.15;;
52186;SDS011;38161;53.020;6.598;2023-02-27T18:31:32;6.57;;;1.23;;